createdAt,value
2017-05-25T00:00:26.711Z,1015.65
2017-05-25T00:01:07.299Z,1015.67
2017-05-25T00:01:47.878Z,1015.67
2017-05-25T00:02:28.471Z,1015.67
2017-05-25T00:03:10.000Z,1015.68
2017-05-25T00:03:50.597Z,1015.64
2017-05-25T00:04:31.195Z,1015.64
2017-05-25T00:05:11.774Z,1015.64
2017-05-25T00:05:52.361Z,1015.62
2017-05-25T00:06:32.935Z,1015.61
2017-05-25T00:07:13.518Z,1015.62
2017-05-25T00:07:54.115Z,1015.62
2017-05-25T00:08:34.717Z,1015.61
2017-05-25T00:09:15.323Z,1015.6
2017-05-25T00:09:55.917Z,1015.59
2017-05-25T00:10:36.494Z,1015.57
2017-05-25T00:11:17.093Z,1015.6
2017-05-25T00:11:57.667Z,1015.62
2017-05-25T00:12:38.239Z,1015.58
2017-05-25T00:13:18.822Z,1015.6
2017-05-25T00:13:59.407Z,1015.55
2017-05-25T00:14:39.989Z,1015.6
2017-05-25T00:15:20.575Z,1015.51
2017-05-25T00:16:01.170Z,1015.55
2017-05-25T00:16:41.743Z,1015.55
2017-05-25T00:17:22.320Z,1015.52
2017-05-25T00:18:02.901Z,1015.54
2017-05-25T00:18:43.473Z,1015.53
2017-05-25T00:19:24.040Z,1015.55
2017-05-25T00:20:04.632Z,1015.52
2017-05-25T00:20:45.223Z,1015.54
2017-05-25T00:21:25.793Z,1015.55
2017-05-25T00:22:06.363Z,1015.55
2017-05-25T00:22:46.951Z,1015.53
2017-05-25T00:23:27.526Z,1015.52
2017-05-25T00:24:08.119Z,1015.53
2017-05-25T00:24:48.703Z,1015.51
2017-05-25T00:25:29.280Z,1015.52
2017-05-25T00:26:09.903Z,1015.54
2017-05-25T00:26:50.486Z,1015.54
2017-05-25T00:27:31.060Z,1015.55
2017-05-25T00:28:11.654Z,1015.55
2017-05-25T00:28:52.236Z,1015.57
2017-05-25T00:29:32.802Z,1015.55
2017-05-25T00:30:13.379Z,1015.51
2017-05-25T00:30:53.963Z,1015.52
2017-05-25T00:31:34.577Z,1015.51
2017-05-25T00:32:15.164Z,1015.52
2017-05-25T00:32:55.768Z,1015.52
2017-05-25T00:33:36.382Z,1015.51
2017-05-25T00:34:16.968Z,1015.48
2017-05-25T00:34:57.544Z,1015.51
2017-05-25T00:35:38.119Z,1015.44
2017-05-25T00:36:18.701Z,1015.49
2017-05-25T00:36:59.284Z,1015.48
2017-05-25T00:37:39.869Z,1015.5
2017-05-25T00:38:20.457Z,1015.51
2017-05-25T00:39:01.467Z,1015.45
2017-05-25T00:39:42.052Z,1015.51
2017-05-25T00:40:22.660Z,1015.54
2017-05-25T00:41:03.245Z,1015.46
2017-05-25T00:41:43.870Z,1015.56
2017-05-25T00:42:24.439Z,1015.57
2017-05-25T00:43:05.017Z,1015.57
2017-05-25T00:43:45.590Z,1015.55
2017-05-25T00:44:26.178Z,1015.54
2017-05-25T00:45:06.769Z,1015.58
2017-05-25T00:45:47.336Z,1015.61
2017-05-25T00:46:27.909Z,1015.61
2017-05-25T00:47:08.499Z,1015.57
2017-05-25T00:47:49.078Z,1015.63
2017-05-25T00:48:29.665Z,1015.62
2017-05-25T00:49:10.247Z,1015.56
2017-05-25T00:49:50.845Z,1015.57
2017-05-25T00:50:31.426Z,1015.59
2017-05-25T00:51:12.011Z,1015.59
2017-05-25T00:51:52.604Z,1015.57
2017-05-25T00:52:33.192Z,1015.6
2017-05-25T00:53:13.787Z,1015.61
2017-05-25T00:53:54.388Z,1015.56
2017-05-25T00:54:34.976Z,1015.64
2017-05-25T00:55:15.546Z,1015.61
2017-05-25T00:55:56.131Z,1015.6
2017-05-25T00:56:36.702Z,1015.62
2017-05-25T00:57:17.296Z,1015.65
2017-05-25T00:57:57.872Z,1015.66
2017-05-25T00:58:38.448Z,1015.65
2017-05-25T00:59:19.039Z,1015.63
2017-05-25T00:59:59.619Z,1015.68
2017-05-25T01:00:40.202Z,1015.68
2017-05-25T01:01:20.788Z,1015.69
2017-05-25T01:02:01.376Z,1015.68
2017-05-25T01:02:41.970Z,1015.67
2017-05-25T01:03:22.561Z,1015.71
2017-05-25T01:04:03.136Z,1015.67
2017-05-25T01:04:43.716Z,1015.65
2017-05-25T01:05:24.298Z,1015.67
2017-05-25T01:06:04.898Z,1015.66
2017-05-25T01:06:45.470Z,1015.63
2017-05-25T01:07:26.050Z,1015.63
2017-05-25T01:08:06.627Z,1015.67
2017-05-25T01:08:47.212Z,1015.65
2017-05-25T01:09:27.792Z,1015.62
2017-05-25T01:10:08.372Z,1015.62
2017-05-25T01:10:48.958Z,1015.64
2017-05-25T01:11:29.535Z,1015.65
2017-05-25T01:12:10.112Z,1015.61
2017-05-25T01:12:50.691Z,1015.65
2017-05-25T01:13:31.281Z,1015.56
2017-05-25T01:14:11.864Z,1015.59
2017-05-25T01:14:52.444Z,1015.62
2017-05-25T01:15:33.046Z,1015.62
2017-05-25T01:16:13.630Z,1015.59
2017-05-25T01:16:54.210Z,1015.57
2017-05-25T01:17:34.776Z,1015.56
2017-05-25T01:18:15.367Z,1015.53
2017-05-25T01:18:55.969Z,1015.51
2017-05-25T01:19:36.558Z,1015.58
2017-05-25T01:20:17.150Z,1015.56
2017-05-25T01:20:57.735Z,1015.57
2017-05-25T01:21:38.314Z,1015.56
2017-05-25T01:22:18.901Z,1015.56
2017-05-25T01:22:59.522Z,1015.6
2017-05-25T01:23:40.102Z,1015.62
2017-05-25T01:24:20.675Z,1015.6
2017-05-25T01:25:01.287Z,1015.63
2017-05-25T01:25:41.887Z,1015.64
2017-05-25T01:26:22.468Z,1015.62
2017-05-25T01:27:03.054Z,1015.66
2017-05-25T01:27:43.616Z,1015.64
2017-05-25T01:28:24.248Z,1015.66
2017-05-25T01:29:04.834Z,1015.6
2017-05-25T01:29:45.402Z,1015.59
2017-05-25T01:30:25.987Z,1015.67
2017-05-25T01:31:06.585Z,1015.61
2017-05-25T01:31:47.162Z,1015.62
2017-05-25T01:32:27.749Z,1015.6
2017-05-25T01:33:08.319Z,1015.56
2017-05-25T01:33:48.894Z,1015.58
2017-05-25T01:34:29.502Z,1015.56
2017-05-25T01:35:10.075Z,1015.56
2017-05-25T01:35:50.669Z,1015.55
2017-05-25T01:36:31.268Z,1015.54
2017-05-25T01:37:11.832Z,1015.58
2017-05-25T01:37:52.412Z,1015.57
2017-05-25T01:38:32.998Z,1015.63
2017-05-25T01:39:13.569Z,1015.59
2017-05-25T01:39:54.151Z,1015.57
2017-05-25T01:40:34.737Z,1015.59
2017-05-25T01:41:15.333Z,1015.54
2017-05-25T01:41:55.916Z,1015.54
2017-05-25T01:42:36.492Z,1015.53
2017-05-25T01:43:17.073Z,1015.52
2017-05-25T01:43:57.660Z,1015.55
2017-05-25T01:44:38.236Z,1015.5
2017-05-25T01:45:18.821Z,1015.49
2017-05-25T01:45:59.401Z,1015.49
2017-05-25T01:46:39.970Z,1015.47
2017-05-25T01:47:20.565Z,1015.47
2017-05-25T01:48:01.141Z,1015.47
2017-05-25T01:48:41.742Z,1015.46
2017-05-25T01:49:22.328Z,1015.48
2017-05-25T01:50:02.916Z,1015.47
2017-05-25T01:50:43.501Z,1015.47
2017-05-25T01:51:24.078Z,1015.47
2017-05-25T01:52:04.649Z,1015.47
2017-05-25T01:52:45.250Z,1015.53
2017-05-25T01:53:25.828Z,1015.48
2017-05-25T01:54:06.452Z,1015.49
2017-05-25T01:54:47.015Z,1015.53
2017-05-25T01:55:27.605Z,1015.52
2017-05-25T01:56:08.186Z,1015.55
2017-05-25T01:56:48.761Z,1015.56
2017-05-25T01:57:29.365Z,1015.58
2017-05-25T01:58:09.945Z,1015.56
2017-05-25T01:58:50.531Z,1015.57
2017-05-25T01:59:31.112Z,1015.55
2017-05-25T02:00:11.690Z,1015.55
2017-05-25T02:00:52.283Z,1015.63
2017-05-25T02:01:32.935Z,1015.54
2017-05-25T02:02:13.752Z,1015.54
2017-05-25T02:02:54.347Z,1015.56
2017-05-25T02:03:34.941Z,1015.56
2017-05-25T02:04:15.520Z,1015.6
2017-05-25T02:04:56.099Z,1015.59
2017-05-25T02:05:36.684Z,1015.54
2017-05-25T02:06:17.748Z,1015.61
2017-05-25T02:06:58.348Z,1015.6
2017-05-25T02:07:38.923Z,1015.59
2017-05-25T02:08:19.516Z,1015.62
2017-05-25T02:09:00.095Z,1015.61
2017-05-25T02:09:40.682Z,1015.61
2017-05-25T02:10:21.251Z,1015.61
2017-05-25T02:11:01.848Z,1015.62
2017-05-25T02:11:42.453Z,1015.59
2017-05-25T02:12:23.041Z,1015.59
2017-05-25T02:13:03.637Z,1015.57
2017-05-25T02:13:44.220Z,1015.61
2017-05-25T02:14:24.818Z,1015.59
2017-05-25T02:15:05.443Z,1015.58
2017-05-25T02:15:46.032Z,1015.62
2017-05-25T02:16:26.623Z,1015.59
2017-05-25T02:17:07.207Z,1015.58
2017-05-25T02:17:47.791Z,1015.63
2017-05-25T02:18:28.366Z,1015.64
2017-05-25T02:19:08.936Z,1015.62
2017-05-25T02:19:49.559Z,1015.64
2017-05-25T02:20:30.186Z,1015.6
2017-05-25T02:21:10.780Z,1015.64
2017-05-25T02:21:51.362Z,1015.6
2017-05-25T02:22:31.946Z,1015.65
2017-05-25T02:23:12.524Z,1015.59
2017-05-25T02:23:53.099Z,1015.58
2017-05-25T02:24:33.683Z,1015.56
2017-05-25T02:25:14.260Z,1015.6
2017-05-25T02:25:54.857Z,1015.57
2017-05-25T02:26:35.426Z,1015.56
2017-05-25T02:27:15.995Z,1015.55
2017-05-25T02:27:56.593Z,1015.55
2017-05-25T02:28:37.160Z,1015.54
2017-05-25T02:29:17.739Z,1015.55
2017-05-25T02:29:58.329Z,1015.5
2017-05-25T02:30:38.898Z,1015.51
2017-05-25T02:31:19.492Z,1015.52
2017-05-25T02:32:00.072Z,1015.53
2017-05-25T02:32:40.657Z,1015.51
2017-05-25T02:33:21.270Z,1015.53
2017-05-25T02:34:01.857Z,1015.52
2017-05-25T02:34:42.442Z,1015.5
2017-05-25T02:35:23.011Z,1015.52
2017-05-25T02:36:03.588Z,1015.52
2017-05-25T02:36:44.205Z,1015.5
2017-05-25T02:37:24.781Z,1015.5
2017-05-25T02:38:05.367Z,1015.47
2017-05-25T02:38:45.965Z,1015.51
2017-05-25T02:39:26.562Z,1015.49
2017-05-25T02:40:07.138Z,1015.49
2017-05-25T02:40:47.711Z,1015.47
2017-05-25T02:41:28.543Z,1015.49
2017-05-25T02:42:09.115Z,1015.51
2017-05-25T02:42:49.746Z,1015.47
2017-05-25T02:43:30.326Z,1015.47
2017-05-25T02:44:10.952Z,1015.49
2017-05-25T02:44:51.620Z,1015.49
2017-05-25T02:45:32.205Z,1015.45
2017-05-25T02:46:12.799Z,1015.44
2017-05-25T02:46:53.795Z,1015.45
2017-05-25T02:47:34.399Z,1015.43
2017-05-25T02:48:14.997Z,1015.43
2017-05-25T02:48:55.578Z,1015.43
2017-05-25T02:49:36.159Z,1015.43
2017-05-25T02:50:16.733Z,1015.42
2017-05-25T02:50:57.309Z,1015.4
2017-05-25T02:51:37.901Z,1015.41
2017-05-25T02:52:18.491Z,1015.39
2017-05-25T02:52:59.055Z,1015.4
2017-05-25T02:53:39.628Z,1015.4
2017-05-25T02:54:20.203Z,1015.41
2017-05-25T02:55:00.782Z,1015.39
2017-05-25T02:55:41.387Z,1015.39
2017-05-25T02:56:21.971Z,1015.38
2017-05-25T02:57:02.600Z,1015.41
2017-05-25T02:57:43.181Z,1015.37
2017-05-25T02:58:23.751Z,1015.37
2017-05-25T02:59:04.327Z,1015.39
2017-05-25T02:59:44.900Z,1015.39
2017-05-25T03:00:25.490Z,1015.35
2017-05-25T03:01:06.073Z,1015.37
2017-05-25T03:01:46.676Z,1015.39
2017-05-25T03:02:27.262Z,1015.36
2017-05-25T03:03:07.838Z,1015.38
2017-05-25T03:03:48.426Z,1015.39
2017-05-25T03:04:29.003Z,1015.38
2017-05-25T03:05:09.599Z,1015.45
2017-05-25T03:05:50.176Z,1015.41
2017-05-25T03:06:30.759Z,1015.45
2017-05-25T03:07:11.339Z,1015.43
2017-05-25T03:07:51.950Z,1015.46
2017-05-25T03:08:32.524Z,1015.44
2017-05-25T03:09:13.105Z,1015.5
2017-05-25T03:09:53.760Z,1015.45
2017-05-25T03:10:34.342Z,1015.52
2017-05-25T03:11:14.922Z,1015.48
2017-05-25T03:11:55.497Z,1015.55
2017-05-25T03:12:36.089Z,1015.48
2017-05-25T03:13:16.683Z,1015.46
2017-05-25T03:13:57.271Z,1015.56
2017-05-25T03:14:37.859Z,1015.53
2017-05-25T03:15:18.438Z,1015.52
2017-05-25T03:15:59.025Z,1015.5
2017-05-25T03:16:39.626Z,1015.45
2017-05-25T03:17:20.200Z,1015.49
2017-05-25T03:18:00.798Z,1015.51
2017-05-25T03:18:41.390Z,1015.47
2017-05-25T03:19:21.983Z,1015.45
2017-05-25T03:20:02.578Z,1015.49
2017-05-25T03:20:43.162Z,1015.52
2017-05-25T03:21:23.744Z,1015.56
2017-05-25T03:22:04.497Z,1015.57
2017-05-25T03:22:45.118Z,1015.58
2017-05-25T03:23:25.749Z,1015.53
2017-05-25T03:24:06.326Z,1015.54
2017-05-25T03:24:46.914Z,1015.54
2017-05-25T03:25:27.493Z,1015.56
2017-05-25T03:26:08.113Z,1015.57
2017-05-25T03:26:48.688Z,1015.54
2017-05-25T03:27:29.277Z,1015.57
2017-05-25T03:28:09.928Z,1015.57
2017-05-25T03:28:50.524Z,1015.59
2017-05-25T03:29:31.149Z,1015.59
2017-05-25T03:30:11.730Z,1015.63
2017-05-25T03:30:52.298Z,1015.61
2017-05-25T03:31:32.899Z,1015.6
2017-05-25T03:32:13.470Z,1015.63
2017-05-25T03:32:54.052Z,1015.61
2017-05-25T03:33:34.638Z,1015.66
2017-05-25T03:34:15.556Z,1015.62
2017-05-25T03:34:56.150Z,1015.6
2017-05-25T03:35:36.744Z,1015.63
2017-05-25T03:36:17.344Z,1015.62
2017-05-25T03:36:58.030Z,1015.65
2017-05-25T03:37:38.608Z,1015.67
2017-05-25T03:38:19.178Z,1015.66
2017-05-25T03:38:59.766Z,1015.62
2017-05-25T03:39:40.361Z,1015.61
2017-05-25T03:40:20.939Z,1015.67
2017-05-25T03:41:01.565Z,1015.64
2017-05-25T03:41:42.147Z,1015.63
2017-05-25T03:42:22.795Z,1015.64
2017-05-25T03:43:03.383Z,1015.63
2017-05-25T03:43:43.965Z,1015.6
2017-05-25T03:44:24.837Z,1015.59
2017-05-25T03:45:05.424Z,1015.62
2017-05-25T03:45:45.996Z,1015.59
2017-05-25T03:46:26.601Z,1015.61
2017-05-25T03:47:07.184Z,1015.64
2017-05-25T03:47:47.755Z,1015.65
2017-05-25T03:48:28.337Z,1015.66
2017-05-25T03:49:08.978Z,1015.72
2017-05-25T03:49:49.572Z,1015.64
2017-05-25T03:50:30.157Z,1015.7
2017-05-25T03:51:10.744Z,1015.7
2017-05-25T03:51:51.321Z,1015.73
2017-05-25T03:52:31.903Z,1015.64
2017-05-25T03:53:12.530Z,1015.71
2017-05-25T03:53:53.122Z,1015.7
2017-05-25T03:54:33.694Z,1015.72
2017-05-25T03:55:14.301Z,1015.69
2017-05-25T03:55:54.882Z,1015.72
2017-05-25T03:56:35.458Z,1015.68
2017-05-25T03:57:16.046Z,1015.69
2017-05-25T03:57:56.632Z,1015.65
2017-05-25T03:58:37.274Z,1015.67
2017-05-25T03:59:17.862Z,1015.65
2017-05-25T03:59:58.454Z,1015.66
2017-05-25T04:00:39.029Z,1015.67
2017-05-25T04:01:19.614Z,1015.69
2017-05-25T04:02:00.182Z,1015.66
2017-05-25T04:02:40.754Z,1015.63
2017-05-25T04:03:21.374Z,1015.67
2017-05-25T04:04:01.969Z,1015.65
2017-05-25T04:04:42.554Z,1015.65
2017-05-25T04:05:23.173Z,1015.64
2017-05-25T04:06:03.752Z,1015.62
2017-05-25T04:06:44.331Z,1015.65
2017-05-25T04:07:24.910Z,1015.64
2017-05-25T04:08:05.509Z,1015.59
2017-05-25T04:08:46.077Z,1015.6
2017-05-25T04:09:26.666Z,1015.64
2017-05-25T04:10:07.244Z,1015.6
2017-05-25T04:10:47.820Z,1015.6
2017-05-25T04:11:28.400Z,1015.57
2017-05-25T04:12:08.981Z,1015.59
2017-05-25T04:12:49.558Z,1015.56
2017-05-25T04:13:30.151Z,1015.55
2017-05-25T04:14:10.746Z,1015.55
2017-05-25T04:14:51.332Z,1015.55
2017-05-25T04:15:31.920Z,1015.54
2017-05-25T04:16:12.514Z,1015.55
2017-05-25T04:16:53.085Z,1015.56
2017-05-25T04:17:33.667Z,1015.6
2017-05-25T04:18:14.571Z,1015.55
2017-05-25T04:18:55.385Z,1015.61
2017-05-25T04:19:35.957Z,1015.61
2017-05-25T04:20:16.548Z,1015.59
2017-05-25T04:20:57.123Z,1015.57
2017-05-25T04:21:37.704Z,1015.61
2017-05-25T04:22:18.295Z,1015.61
2017-05-25T04:22:58.892Z,1015.62
2017-05-25T04:23:39.484Z,1015.62
2017-05-25T04:24:20.055Z,1015.63
2017-05-25T04:25:00.632Z,1015.66
2017-05-25T04:25:41.214Z,1015.61
2017-05-25T04:26:21.803Z,1015.66
2017-05-25T04:27:02.384Z,1015.69
2017-05-25T04:27:42.969Z,1015.66
2017-05-25T04:28:23.554Z,1015.68
2017-05-25T04:29:04.129Z,1015.71
2017-05-25T04:29:44.720Z,1015.66
2017-05-25T04:30:25.318Z,1015.71
2017-05-25T04:31:05.917Z,1015.7
2017-05-25T04:31:46.493Z,1015.72
2017-05-25T04:32:27.218Z,1015.73
2017-05-25T04:33:07.841Z,1015.71
2017-05-25T04:33:48.412Z,1015.76
2017-05-25T04:34:28.993Z,1015.8
2017-05-25T04:35:09.570Z,1015.81
2017-05-25T04:35:50.170Z,1015.83
2017-05-25T04:36:30.766Z,1015.83
2017-05-25T04:37:11.352Z,1015.86
2017-05-25T04:37:51.943Z,1015.83
2017-05-25T04:38:32.529Z,1015.84
2017-05-25T04:39:13.136Z,1015.9
2017-05-25T04:39:53.717Z,1015.85
2017-05-25T04:40:34.308Z,1015.87
2017-05-25T04:41:14.890Z,1015.87
2017-05-25T04:41:55.468Z,1015.91
2017-05-25T04:42:36.049Z,1015.89
2017-05-25T04:43:16.672Z,1015.9
2017-05-25T04:43:57.246Z,1015.92
2017-05-25T04:44:37.821Z,1015.9
2017-05-25T04:45:18.401Z,1015.88
2017-05-25T04:45:58.976Z,1015.92
2017-05-25T04:46:39.562Z,1015.9
2017-05-25T04:47:20.136Z,1015.91
2017-05-25T04:48:00.749Z,1015.86
2017-05-25T04:48:41.318Z,1015.92
2017-05-25T04:49:21.900Z,1015.87
2017-05-25T04:50:02.487Z,1015.89
2017-05-25T04:50:43.059Z,1015.91
2017-05-25T04:51:23.636Z,1015.9
2017-05-25T04:52:04.215Z,1015.91
2017-05-25T04:52:44.796Z,1015.89
2017-05-25T04:53:25.375Z,1015.87
2017-05-25T04:54:05.964Z,1015.84
2017-05-25T04:54:46.543Z,1015.88
2017-05-25T04:55:27.121Z,1015.88
2017-05-25T04:56:07.701Z,1015.86
2017-05-25T04:56:48.282Z,1015.86
2017-05-25T04:57:28.862Z,1015.9
2017-05-25T04:58:09.450Z,1015.83
2017-05-25T04:58:50.045Z,1015.86
2017-05-25T04:59:30.625Z,1015.88
2017-05-25T05:00:11.200Z,1015.89
2017-05-25T05:00:51.782Z,1015.89
2017-05-25T05:01:32.380Z,1015.92
2017-05-25T05:02:12.962Z,1015.91
2017-05-25T05:02:53.547Z,1015.89
2017-05-25T05:03:34.144Z,1015.91
2017-05-25T05:04:14.745Z,1015.87
2017-05-25T05:04:55.318Z,1015.86
2017-05-25T05:05:35.900Z,1015.87
2017-05-25T05:06:16.519Z,1015.87
2017-05-25T05:06:57.151Z,1015.85
2017-05-25T05:07:37.720Z,1015.85
2017-05-25T05:08:18.291Z,1015.83
2017-05-25T05:08:58.863Z,1015.84
2017-05-25T05:09:39.513Z,1015.82
2017-05-25T05:10:20.114Z,1015.8
2017-05-25T05:11:00.683Z,1015.77
2017-05-25T05:11:41.270Z,1015.81
2017-05-25T05:12:21.865Z,1015.84
2017-05-25T05:13:02.463Z,1015.82
2017-05-25T05:13:43.051Z,1015.83
2017-05-25T05:14:23.634Z,1015.84
2017-05-25T05:15:04.233Z,1015.82
2017-05-25T05:15:44.816Z,1015.83
2017-05-25T05:16:25.396Z,1015.82
2017-05-25T05:17:05.980Z,1015.82
2017-05-25T05:17:46.601Z,1015.85
2017-05-25T05:18:27.167Z,1015.87
2017-05-25T05:19:07.740Z,1015.87
2017-05-25T05:19:48.339Z,1015.86
2017-05-25T05:20:28.918Z,1015.9
2017-05-25T05:21:09.492Z,1015.89
2017-05-25T05:21:50.134Z,1015.88
2017-05-25T05:22:30.683Z,1015.91
2017-05-25T05:23:11.271Z,1015.86
2017-05-25T05:23:51.851Z,1015.87
2017-05-25T05:24:32.434Z,1015.87
2017-05-25T05:25:13.009Z,1015.9
2017-05-25T05:25:53.599Z,1015.87
2017-05-25T05:26:34.222Z,1015.94
2017-05-25T05:27:14.753Z,1015.99
2017-05-25T05:27:55.349Z,1016.11
2017-05-25T05:28:35.940Z,1016.17
2017-05-25T05:29:16.524Z,1016.21
2017-05-25T05:29:57.109Z,1016.28
2017-05-25T05:30:37.674Z,1016.3
2017-05-25T05:31:18.257Z,1016.32
2017-05-25T05:31:58.844Z,1016.32
2017-05-25T05:32:39.424Z,1016.37
2017-05-25T05:33:20.011Z,1016.38
2017-05-25T05:34:00.624Z,1016.4
2017-05-25T05:34:41.217Z,1016.4
2017-05-25T05:35:21.868Z,1016.49
2017-05-25T05:36:02.445Z,1016.51
2017-05-25T05:36:43.043Z,1016.52
2017-05-25T05:37:23.623Z,1016.54
2017-05-25T05:38:04.217Z,1016.53
2017-05-25T05:38:44.808Z,1016.61
2017-05-25T05:39:25.407Z,1016.63
2017-05-25T05:40:05.990Z,1016.67
2017-05-25T05:40:46.570Z,1016.7
2017-05-25T05:41:27.161Z,1016.74
2017-05-25T05:42:07.776Z,1016.78
2017-05-25T05:42:48.362Z,1016.84
2017-05-25T05:43:28.959Z,1016.86
2017-05-25T05:44:09.537Z,1016.89
2017-05-25T05:44:50.132Z,1016.92
2017-05-25T05:45:30.721Z,1016.97
2017-05-25T05:46:11.326Z,1017.07
2017-05-25T05:46:51.922Z,1017.15
2017-05-25T05:47:32.502Z,1017.14
2017-05-25T05:48:13.089Z,1017.16
2017-05-25T05:48:53.700Z,1017.22
2017-05-25T05:49:34.294Z,1017.26
2017-05-25T05:50:14.892Z,1017.37
2017-05-25T05:50:55.606Z,1017.43
2017-05-25T05:51:36.188Z,1017.45
2017-05-25T05:52:16.850Z,1017.57
2017-05-25T05:52:57.441Z,1017.57
2017-05-25T05:53:38.053Z,1017.73
2017-05-25T05:54:18.638Z,1017.8
2017-05-25T05:54:59.238Z,1017.86
2017-05-25T05:55:39.855Z,1017.95
2017-05-25T05:56:20.463Z,1018.04
2017-05-25T05:57:01.058Z,1018.06
2017-05-25T05:57:41.649Z,1018.1
2017-05-25T05:58:22.293Z,1018.11
2017-05-25T05:59:02.891Z,1018.2
2017-05-25T05:59:43.497Z,1018.16
2017-05-25T06:00:24.084Z,1018.13
2017-05-25T06:01:04.669Z,1018.12
2017-05-25T06:01:45.260Z,1018.05
2017-05-25T06:02:25.858Z,1018.01
2017-05-25T06:03:06.445Z,1018.02
2017-05-25T06:03:47.033Z,1018.05
2017-05-25T06:04:27.617Z,1017.95
2017-05-25T06:05:08.212Z,1017.86
2017-05-25T06:05:48.794Z,1017.65
2017-05-25T06:06:29.387Z,1017.55
2017-05-25T06:07:09.974Z,1017.51
2017-05-25T06:07:50.611Z,1017.51
2017-05-25T06:08:31.202Z,1017.51
2017-05-25T06:09:11.793Z,1017.53
2017-05-25T06:09:52.538Z,1017.45
2017-05-25T06:10:33.121Z,1017.3
2017-05-25T06:11:13.726Z,1017.21
2017-05-25T06:11:54.315Z,1017.17
2017-05-25T06:12:34.900Z,1017.14
2017-05-25T06:13:15.558Z,1017.08
2017-05-25T06:13:56.150Z,1017.12
2017-05-25T06:14:36.751Z,1017.51
2017-05-25T06:15:17.342Z,1017.95
2017-05-25T06:15:57.933Z,1018.18
2017-05-25T06:16:38.520Z,1018.37
2017-05-25T06:17:19.100Z,1018.41
2017-05-25T06:17:59.718Z,1018.29
2017-05-25T06:18:40.325Z,1018.3
2017-05-25T06:19:20.915Z,1018.13
2017-05-25T06:20:01.518Z,1018.2
2017-05-25T06:20:42.109Z,1018.21
2017-05-25T06:21:22.700Z,1017.94
2017-05-25T06:22:03.286Z,1017.74
2017-05-25T06:22:43.907Z,1017.77
2017-05-25T06:23:24.491Z,1018
2017-05-25T06:24:05.140Z,1018.06
2017-05-25T06:24:45.735Z,1018.15
2017-05-25T06:25:26.327Z,1018.07
2017-05-25T06:26:06.922Z,1017.39
2017-05-25T06:26:47.519Z,1018.45
2017-05-25T06:27:28.105Z,1018.54
2017-05-25T06:28:08.712Z,1017.53
2017-05-25T06:28:49.307Z,1018.71
2017-05-25T06:29:29.894Z,1018.58
2017-05-25T06:30:10.553Z,1017.5
2017-05-25T06:30:51.167Z,1018.19
2017-05-25T06:31:31.754Z,1018.36
2017-05-25T06:32:12.355Z,1018.68
2017-05-25T06:32:52.950Z,1018.3
2017-05-25T06:33:33.532Z,1018.38
2017-05-25T06:34:14.133Z,1018.22
2017-05-25T06:34:58.285Z,1016.77
2017-05-25T06:35:42.298Z,1017.19
2017-05-25T06:36:22.888Z,1016.97
2017-05-25T06:37:04.009Z,1016.77
2017-05-25T06:37:46.347Z,1016.6
2017-05-25T06:38:27.429Z,1016.66
2017-05-25T06:39:10.349Z,1016.67
2017-05-25T06:39:52.248Z,1016.8
2017-05-25T06:40:33.986Z,1016.6
2017-05-25T06:41:14.600Z,1016.73
2017-05-25T06:41:56.864Z,1016.64
2017-05-25T06:42:37.732Z,1016.67
2017-05-25T06:43:18.316Z,1016.68
2017-05-25T06:43:58.987Z,1016.76
2017-05-25T06:44:39.720Z,1017.12
2017-05-25T06:45:20.338Z,1017.86
2017-05-25T06:46:00.943Z,1018.59
2017-05-25T06:46:41.561Z,1019.1
2017-05-25T06:47:23.566Z,1018.96
2017-05-25T06:48:05.372Z,1018.41
2017-05-25T06:48:46.190Z,1017.67
2017-05-25T06:49:26.790Z,1017.07
2017-05-25T06:50:07.405Z,1016.78
2017-05-25T06:50:48.008Z,1016.7
2017-05-25T06:51:28.817Z,1016.61
2017-05-25T06:52:09.424Z,1016.63
2017-05-25T06:52:50.016Z,1016.58
2017-05-25T06:53:31.285Z,1016.61
2017-05-25T06:54:11.242Z,1016.66
2017-05-25T06:54:51.849Z,1016.65
2017-05-25T06:55:32.450Z,1016.6
2017-05-25T06:56:13.043Z,1016.62
2017-05-25T06:56:53.640Z,1016.56
2017-05-25T06:57:34.233Z,1016.63
2017-05-25T06:58:14.835Z,1016.62
2017-05-25T06:58:55.441Z,1016.64
2017-05-25T06:59:36.036Z,1016.66
2017-05-25T07:00:16.677Z,1016.64
2017-05-25T07:00:57.382Z,1016.64
2017-05-25T07:01:37.985Z,1016.62
2017-05-25T07:02:18.638Z,1016.64
2017-05-25T07:02:59.230Z,1016.68
2017-05-25T07:03:39.827Z,1016.67
2017-05-25T07:04:20.429Z,1016.65
2017-05-25T07:05:01.046Z,1016.65
2017-05-25T07:05:41.646Z,1016.65
2017-05-25T07:06:22.241Z,1016.65
2017-05-25T07:07:02.859Z,1016.69
2017-05-25T07:07:43.445Z,1016.72
2017-05-25T07:08:24.048Z,1016.64
2017-05-25T07:09:04.651Z,1016.59
2017-05-25T07:09:45.264Z,1016.62
2017-05-25T07:10:25.852Z,1016.58
2017-05-25T07:11:06.552Z,1016.57
2017-05-25T07:11:47.139Z,1016.63
2017-05-25T07:12:27.738Z,1016.62
2017-05-25T07:13:08.338Z,1016.6
2017-05-25T07:13:48.975Z,1016.61
2017-05-25T07:14:29.887Z,1016.57
2017-05-25T07:15:10.608Z,1016.53
2017-05-25T07:15:51.209Z,1016.55
2017-05-25T07:16:31.822Z,1016.57
2017-05-25T07:17:12.413Z,1016.61
2017-05-25T07:17:53.025Z,1016.6
2017-05-25T07:18:33.642Z,1016.59
2017-05-25T07:19:14.321Z,1016.64
2017-05-25T07:19:55.023Z,1016.68
2017-05-25T07:20:35.693Z,1016.7
2017-05-25T07:21:16.295Z,1016.73
2017-05-25T07:21:56.921Z,1016.79
2017-05-25T07:22:37.523Z,1016.79
2017-05-25T07:23:18.114Z,1016.8
2017-05-25T07:23:58.713Z,1016.88
2017-05-25T07:24:39.436Z,1016.85
2017-05-25T07:25:20.084Z,1016.83
2017-05-25T07:26:01.600Z,1016.82
2017-05-25T07:26:51.784Z,1016.77
2017-05-25T07:27:59.021Z,1016.57
2017-05-25T07:28:41.336Z,1016.53
2017-05-25T07:29:22.377Z,1016.48
2017-05-25T07:30:17.731Z,1016.47
2017-05-25T07:31:02.664Z,1016.48
2017-05-25T07:31:54.828Z,1016.49
2017-05-25T07:32:35.515Z,1016.48
2017-05-25T07:33:16.110Z,1016.52
2017-05-25T07:33:56.742Z,1016.52
2017-05-25T07:34:37.327Z,1016.53
2017-05-25T07:35:17.923Z,1016.56
2017-05-25T07:35:58.524Z,1016.57
2017-05-25T07:36:39.117Z,1016.49
2017-05-25T07:37:19.729Z,1016.48
2017-05-25T07:38:00.321Z,1016.51
2017-05-25T07:38:40.940Z,1016.51
2017-05-25T07:39:21.553Z,1016.54
2017-05-25T07:40:02.147Z,1016.53
2017-05-25T07:40:42.745Z,1016.54
2017-05-25T07:41:23.343Z,1016.55
2017-05-25T07:42:03.946Z,1016.56
2017-05-25T07:42:44.553Z,1016.59
2017-05-25T07:43:25.152Z,1016.53
2017-05-25T07:44:05.748Z,1016.58
2017-05-25T07:44:46.359Z,1016.63
2017-05-25T07:45:26.961Z,1016.58
2017-05-25T07:46:07.564Z,1016.6
2017-05-25T07:46:48.169Z,1016.59
2017-05-25T07:47:28.768Z,1016.61
2017-05-25T07:48:09.364Z,1016.59
2017-05-25T07:48:49.960Z,1016.6
2017-05-25T07:49:30.560Z,1016.54
2017-05-25T07:50:11.154Z,1016.6
2017-05-25T07:50:51.758Z,1016.57
2017-05-25T07:51:32.349Z,1016.62
2017-05-25T07:52:12.967Z,1016.68
2017-05-25T07:52:53.591Z,1016.74
2017-05-25T07:53:34.220Z,1016.73
2017-05-25T07:54:14.872Z,1016.73
2017-05-25T07:54:55.470Z,1016.69
2017-05-25T07:55:36.064Z,1016.74
2017-05-25T07:56:16.652Z,1016.72
2017-05-25T07:56:57.246Z,1016.69
2017-05-25T07:57:37.853Z,1016.67
2017-05-25T07:58:18.440Z,1016.64
2017-05-25T07:58:59.054Z,1016.54
2017-05-25T07:59:39.649Z,1016.62
2017-05-25T08:00:20.244Z,1016.65
2017-05-25T08:01:00.846Z,1016.65
2017-05-25T08:01:41.451Z,1016.6
2017-05-25T08:02:22.051Z,1016.54
2017-05-25T08:03:02.665Z,1016.55
2017-05-25T08:03:43.264Z,1016.54
2017-05-25T08:04:23.847Z,1016.55
2017-05-25T08:05:04.447Z,1016.57
2017-05-25T08:05:45.023Z,1016.59
2017-05-25T08:06:25.632Z,1016.58
2017-05-25T08:07:06.227Z,1016.56
2017-05-25T08:07:46.841Z,1016.57
2017-05-25T08:08:27.431Z,1016.54
2017-05-25T08:09:08.041Z,1016.53
2017-05-25T08:09:48.642Z,1016.51
2017-05-25T08:10:29.239Z,1016.55
2017-05-25T08:11:09.825Z,1016.54
2017-05-25T08:11:50.436Z,1016.53
2017-05-25T08:12:31.034Z,1016.52
2017-05-25T08:13:11.620Z,1016.52
2017-05-25T08:13:52.202Z,1016.53
2017-05-25T08:14:32.803Z,1016.56